sensor_id;sensor_type;location;lat;lon;timestamp;temperature;humidity
5723;DHT22;2886;49.722;8.612;2023-04-25T00:02:03;9.10;99.90
5723;DHT22;2886;49.722;8.612;2023-04-25T00:04:29;9.00;99.90
5723;DHT22;2886;49.722;8.612;2023-04-25T00:06:55;9.00;99.90
5723;DHT22;2886;49.722;8.612;2023-04-25T00:09:21;9.00;99.90
5723;DHT22;2886;49.722;8.612;2023-04-25T00:11:47;9.00;99.90
5723;DHT22;2886;49.722;8.612;2023-04-25T00:14:13;9.00;99.90
5723;DHT22;2886;49.722;8.612;2023-04-25T00:16:39;9.00;99.90
5723;DHT22;2886;49.722;8.612;2023-04-25T00:19:06;9.00;99.90
5723;DHT22;2886;49.722;8.612;2023-04-25T00:21:33;8.90;99.90
5723;DHT22;2886;49.722;8.612;2023-04-25T00:23:59;8.90;99.90
5723;DHT22;2886;49.722;8.612;2023-04-25T00:26:25;8.90;99.90
5723;DHT22;2886;49.722;8.612;2023-04-25T00:28:51;8.90;99.90
5723;DHT22;2886;49.722;8.612;2023-04-25T00:31:16;8.90;99.90
5723;DHT22;2886;49.722;8.612;2023-04-25T00:33:42;8.90;99.90
5723;DHT22;2886;49.722;8.612;2023-04-25T00:36:08;8.90;99.90
5723;DHT22;2886;49.722;8.612;2023-04-25T00:38:34;8.80;99.90
5723;DHT22;2886;49.722;8.612;2023-04-25T00:41:00;8.80;99.90
5723;DHT22;2886;49.722;8.612;2023-04-25T00:43:26;8.90;99.90
5723;DHT22;2886;49.722;8.612;2023-04-25T00:45:52;8.80;99.90
5723;DHT22;2886;49.722;8.612;2023-04-25T00:48:20;8.80;99.90
5723;DHT22;2886;49.722;8.612;2023-04-25T00:50:58;8.80;99.90
5723;DHT22;2886;49.722;8.612;2023-04-25T00:53:25;8.80;99.90
5723;DHT22;2886;49.722;8.612;2023-04-25T00:55:52;8.80;99.90
5723;DHT22;2886;49.722;8.612;2023-04-25T00:58:18;8.80;99.90
5723;DHT22;2886;49.722;8.612;2023-04-25T01:00:46;8.80;99.90
5723;DHT22;2886;49.722;8.612;2023-04-25T01:03:15;8.80;99.90
5723;DHT22;2886;49.722;8.612;2023-04-25T01:05:45;8.70;99.90
5723;DHT22;2886;49.722;8.612;2023-04-25T01:08:12;8.70;99.90
5723;DHT22;2886;49.722;8.612;2023-04-25T01:10:38;8.70;99.90
5723;DHT22;2886;49.722;8.612;2023-04-25T01:13:04;8.70;99.90
5723;DHT22;2886;49.722;8.612;2023-04-25T01:15:30;8.70;99.90
5723;DHT22;2886;49.722;8.612;2023-04-25T01:17:55;8.70;99.90
5723;DHT22;2886;49.722;8.612;2023-04-25T01:20:22;8.70;99.90
5723;DHT22;2886;49.722;8.612;2023-04-25T01:22:49;8.70;99.90
5723;DHT22;2886;49.722;8.612;2023-04-25T01:25:15;8.70;99.90
5723;DHT22;2886;49.722;8.612;2023-04-25T01:27:42;8.70;99.90
5723;DHT22;2886;49.722;8.612;2023-04-25T01:30:08;8.70;99.90
5723;DHT22;2886;49.722;8.612;2023-04-25T01:32:34;8.70;99.90
5723;DHT22;2886;49.722;8.612;2023-04-25T01:35:05;8.70;99.90
5723;DHT22;2886;49.722;8.612;2023-04-25T01:37:41;8.70;99.90
5723;DHT22;2886;49.722;8.612;2023-04-25T01:40:09;8.70;99.90
5723;DHT22;2886;49.722;8.612;2023-04-25T01:42:36;8.80;99.90
5723;DHT22;2886;49.722;8.612;2023-04-25T01:45:03;8.80;99.90
5723;DHT22;2886;49.722;8.612;2023-04-25T01:47:29;8.70;99.90
5723;DHT22;2886;49.722;8.612;2023-04-25T01:49:54;8.70;99.90
5723;DHT22;2886;49.722;8.612;2023-04-25T01:52:20;8.70;99.90
5723;DHT22;2886;49.722;8.612;2023-04-25T01:54:46;8.80;99.90
5723;DHT22;2886;49.722;8.612;2023-04-25T01:57:12;8.80;99.90
5723;DHT22;2886;49.722;8.612;2023-04-25T01:59:39;8.80;99.90
5723;DHT22;2886;49.722;8.612;2023-04-25T02:02:05;8.80;99.90
5723;DHT22;2886;49.722;8.612;2023-04-25T02:04:30;8.80;99.90
5723;DHT22;2886;49.722;8.612;2023-04-25T02:06:56;8.80;99.90
5723;DHT22;2886;49.722;8.612;2023-04-25T02:09:22;8.80;99.90
5723;DHT22;2886;49.722;8.612;2023-04-25T02:11:48;8.70;99.90
5723;DHT22;2886;49.722;8.612;2023-04-25T02:14:13;8.80;99.90
5723;DHT22;2886;49.722;8.612;2023-04-25T02:16:39;8.80;99.90
5723;DHT22;2886;49.722;8.612;2023-04-25T02:19:05;8.80;99.90
5723;DHT22;2886;49.722;8.612;2023-04-25T02:21:32;8.70;99.90
5723;DHT22;2886;49.722;8.612;2023-04-25T02:24:01;8.70;99.90
5723;DHT22;2886;49.722;8.612;2023-04-25T02:26:26;8.70;99.90
5723;DHT22;2886;49.722;8.612;2023-04-25T02:28:52;8.60;99.90
5723;DHT22;2886;49.722;8.612;2023-04-25T02:31:18;8.70;99.90
5723;DHT22;2886;49.722;8.612;2023-04-25T02:33:43;8.70;99.90
5723;DHT22;2886;49.722;8.612;2023-04-25T02:36:09;8.70;99.90
5723;DHT22;2886;49.722;8.612;2023-04-25T02:38:35;8.80;99.90
5723;DHT22;2886;49.722;8.612;2023-04-25T02:41:01;8.80;99.90
5723;DHT22;2886;49.722;8.612;2023-04-25T02:43:26;8.80;99.90
5723;DHT22;2886;49.722;8.612;2023-04-25T02:45:52;8.80;99.90
5723;DHT22;2886;49.722;8.612;2023-04-25T02:48:17;8.80;99.90
5723;DHT22;2886;49.722;8.612;2023-04-25T02:50:43;8.70;99.90
5723;DHT22;2886;49.722;8.612;2023-04-25T02:53:09;8.80;99.90
5723;DHT22;2886;49.722;8.612;2023-04-25T02:55:35;8.70;99.90
5723;DHT22;2886;49.722;8.612;2023-04-25T02:58:00;8.80;99.90
5723;DHT22;2886;49.722;8.612;2023-04-25T03:00:29;8.80;99.90
5723;DHT22;2886;49.722;8.612;2023-04-25T03:02:55;8.70;99.90
5723;DHT22;2886;49.722;8.612;2023-04-25T03:05:21;8.80;99.90
5723;DHT22;2886;49.722;8.612;2023-04-25T03:07:46;8.70;99.90
5723;DHT22;2886;49.722;8.612;2023-04-25T03:10:12;8.70;99.90
5723;DHT22;2886;49.722;8.612;2023-04-25T03:12:38;8.70;99.90
5723;DHT22;2886;49.722;8.612;2023-04-25T03:15:04;8.70;99.90
5723;DHT22;2886;49.722;8.612;2023-04-25T03:17:30;8.70;99.90
5723;DHT22;2886;49.722;8.612;2023-04-25T03:19:56;8.70;99.90
5723;DHT22;2886;49.722;8.612;2023-04-25T03:22:22;8.60;99.90
5723;DHT22;2886;49.722;8.612;2023-04-25T03:24:49;8.60;99.90
5723;DHT22;2886;49.722;8.612;2023-04-25T03:27:14;8.60;99.90
5723;DHT22;2886;49.722;8.612;2023-04-25T03:29:40;8.60;99.90
5723;DHT22;2886;49.722;8.612;2023-04-25T03:32:06;8.60;99.90
5723;DHT22;2886;49.722;8.612;2023-04-25T03:34:32;8.60;99.90
5723;DHT22;2886;49.722;8.612;2023-04-25T03:36:57;8.60;99.90
5723;DHT22;2886;49.722;8.612;2023-04-25T03:39:23;8.60;99.90
5723;DHT22;2886;49.722;8.612;2023-04-25T03:41:49;8.60;99.90
5723;DHT22;2886;49.722;8.612;2023-04-25T03:44:15;8.60;99.90
5723;DHT22;2886;49.722;8.612;2023-04-25T03:46:40;8.70;99.90
5723;DHT22;2886;49.722;8.612;2023-04-25T03:49:06;8.70;99.90
5723;DHT22;2886;49.722;8.612;2023-04-25T03:51:32;8.70;99.90
5723;DHT22;2886;49.722;8.612;2023-04-25T03:53:58;8.70;99.90
5723;DHT22;2886;49.722;8.612;2023-04-25T03:56:24;8.70;99.90
5723;DHT22;2886;49.722;8.612;2023-04-25T03:58:49;8.70;99.90
5723;DHT22;2886;49.722;8.612;2023-04-25T04:01:15;8.70;99.90
5723;DHT22;2886;49.722;8.612;2023-04-25T04:03:40;8.70;99.90
5723;DHT22;2886;49.722;8.612;2023-04-25T04:06:06;8.70;99.90
5723;DHT22;2886;49.722;8.612;2023-04-25T04:08:33;8.70;99.90
5723;DHT22;2886;49.722;8.612;2023-04-25T04:10:59;8.70;99.90
5723;DHT22;2886;49.722;8.612;2023-04-25T04:13:27;8.70;99.90
5723;DHT22;2886;49.722;8.612;2023-04-25T04:15:53;8.70;99.90
5723;DHT22;2886;49.722;8.612;2023-04-25T04:18:19;8.70;99.90
5723;DHT22;2886;49.722;8.612;2023-04-25T04:20:45;8.70;99.90
5723;DHT22;2886;49.722;8.612;2023-04-25T04:23:11;8.70;99.90
5723;DHT22;2886;49.722;8.612;2023-04-25T04:25:36;8.80;99.90
5723;DHT22;2886;49.722;8.612;2023-04-25T04:28:02;8.80;99.90
5723;DHT22;2886;49.722;8.612;2023-04-25T04:30:28;8.70;99.90
5723;DHT22;2886;49.722;8.612;2023-04-25T04:32:59;8.70;99.90
5723;DHT22;2886;49.722;8.612;2023-04-25T04:35:26;8.70;99.90
5723;DHT22;2886;49.722;8.612;2023-04-25T04:37:52;8.70;99.90
5723;DHT22;2886;49.722;8.612;2023-04-25T04:40:17;8.80;99.90
5723;DHT22;2886;49.722;8.612;2023-04-25T04:42:44;8.80;99.90
5723;DHT22;2886;49.722;8.612;2023-04-25T04:45:12;8.80;99.90
5723;DHT22;2886;49.722;8.612;2023-04-25T04:47:38;8.80;99.90
5723;DHT22;2886;49.722;8.612;2023-04-25T04:50:06;8.70;99.90
5723;DHT22;2886;49.722;8.612;2023-04-25T04:52:34;8.80;99.90
5723;DHT22;2886;49.722;8.612;2023-04-25T04:55:00;8.70;99.90
5723;DHT22;2886;49.722;8.612;2023-04-25T04:57:25;8.80;99.90
5723;DHT22;2886;49.722;8.612;2023-04-25T04:59:51;8.70;99.90
5723;DHT22;2886;49.722;8.612;2023-04-25T05:02:17;8.80;99.90
5723;DHT22;2886;49.722;8.612;2023-04-25T05:04:46;8.80;99.90
5723;DHT22;2886;49.722;8.612;2023-04-25T05:07:12;8.80;99.90
5723;DHT22;2886;49.722;8.612;2023-04-25T05:09:38;8.70;99.90
5723;DHT22;2886;49.722;8.612;2023-04-25T05:12:03;8.90;99.90
5723;DHT22;2886;49.722;8.612;2023-04-25T05:14:29;8.90;99.90
5723;DHT22;2886;49.722;8.612;2023-04-25T05:16:55;9.00;99.90
5723;DHT22;2886;49.722;8.612;2023-04-25T05:19:20;9.00;99.90
5723;DHT22;2886;49.722;8.612;2023-04-25T05:21:46;9.00;99.90
5723;DHT22;2886;49.722;8.612;2023-04-25T05:24:12;9.10;99.90
5723;DHT22;2886;49.722;8.612;2023-04-25T05:26:38;9.10;99.90
5723;DHT22;2886;49.722;8.612;2023-04-25T05:29:03;9.00;99.90
5723;DHT22;2886;49.722;8.612;2023-04-25T05:31:29;9.00;99.90
5723;DHT22;2886;49.722;8.612;2023-04-25T05:33:54;8.90;99.90
5723;DHT22;2886;49.722;8.612;2023-04-25T05:36:20;8.80;99.90
5723;DHT22;2886;49.722;8.612;2023-04-25T05:38:46;8.70;99.90
5723;DHT22;2886;49.722;8.612;2023-04-25T05:41:12;8.80;99.90
5723;DHT22;2886;49.722;8.612;2023-04-25T05:43:37;8.70;99.90
5723;DHT22;2886;49.722;8.612;2023-04-25T05:46:03;8.70;99.90
5723;DHT22;2886;49.722;8.612;2023-04-25T05:48:29;8.70;99.90
5723;DHT22;2886;49.722;8.612;2023-04-25T05:50:55;8.60;99.90
5723;DHT22;2886;49.722;8.612;2023-04-25T05:53:21;8.50;99.90
5723;DHT22;2886;49.722;8.612;2023-04-25T05:55:47;8.30;99.90
5723;DHT22;2886;49.722;8.612;2023-04-25T05:58:13;8.20;99.90
5723;DHT22;2886;49.722;8.612;2023-04-25T06:00:38;8.10;99.90
5723;DHT22;2886;49.722;8.612;2023-04-25T06:03:06;8.00;99.90
5723;DHT22;2886;49.722;8.612;2023-04-25T06:05:35;8.00;99.90
5723;DHT22;2886;49.722;8.612;2023-04-25T06:08:00;8.10;99.90
5723;DHT22;2886;49.722;8.612;2023-04-25T06:10:26;8.20;99.90
5723;DHT22;2886;49.722;8.612;2023-04-25T06:12:52;8.20;99.90
5723;DHT22;2886;49.722;8.612;2023-04-25T06:15:17;8.00;99.90
5723;DHT22;2886;49.722;8.612;2023-04-25T06:17:44;8.00;99.90
5723;DHT22;2886;49.722;8.612;2023-04-25T06:20:10;8.00;99.90
5723;DHT22;2886;49.722;8.612;2023-04-25T06:22:35;8.10;99.90
5723;DHT22;2886;49.722;8.612;2023-04-25T06:25:01;8.10;99.90
5723;DHT22;2886;49.722;8.612;2023-04-25T06:27:29;8.20;99.90
5723;DHT22;2886;49.722;8.612;2023-04-25T06:29:54;8.30;99.90
5723;DHT22;2886;49.722;8.612;2023-04-25T06:32:20;8.30;99.90
5723;DHT22;2886;49.722;8.612;2023-04-25T06:34:46;8.40;99.90
5723;DHT22;2886;49.722;8.612;2023-04-25T06:37:11;8.40;99.90
5723;DHT22;2886;49.722;8.612;2023-04-25T06:39:37;8.50;99.90
5723;DHT22;2886;49.722;8.612;2023-04-25T06:42:02;8.40;99.90
5723;DHT22;2886;49.722;8.612;2023-04-25T06:44:28;8.50;99.90
5723;DHT22;2886;49.722;8.612;2023-04-25T06:46:55;8.50;99.90
5723;DHT22;2886;49.722;8.612;2023-04-25T06:49:20;8.60;99.90
5723;DHT22;2886;49.722;8.612;2023-04-25T06:51:46;8.80;99.90
5723;DHT22;2886;49.722;8.612;2023-04-25T06:54:11;8.80;99.90
5723;DHT22;2886;49.722;8.612;2023-04-25T06:56:37;8.90;99.90
5723;DHT22;2886;49.722;8.612;2023-04-25T06:59:02;8.70;99.90
5723;DHT22;2886;49.722;8.612;2023-04-25T07:01:28;8.80;99.90
5723;DHT22;2886;49.722;8.612;2023-04-25T07:03:54;8.80;99.90
5723;DHT22;2886;49.722;8.612;2023-04-25T07:06:19;9.00;99.90
5723;DHT22;2886;49.722;8.612;2023-04-25T07:08:45;9.00;99.90
5723;DHT22;2886;49.722;8.612;2023-04-25T07:11:10;8.90;99.90
5723;DHT22;2886;49.722;8.612;2023-04-25T07:13:36;8.90;99.90
5723;DHT22;2886;49.722;8.612;2023-04-25T07:16:02;9.00;99.90
5723;DHT22;2886;49.722;8.612;2023-04-25T07:18:28;9.10;99.90
5723;DHT22;2886;49.722;8.612;2023-04-25T07:20:54;9.10;99.90
5723;DHT22;2886;49.722;8.612;2023-04-25T07:23:19;9.00;99.90
5723;DHT22;2886;49.722;8.612;2023-04-25T07:25:45;9.00;99.90
5723;DHT22;2886;49.722;8.612;2023-04-25T07:28:11;9.10;99.90
5723;DHT22;2886;49.722;8.612;2023-04-25T07:30:37;9.30;99.90
5723;DHT22;2886;49.722;8.612;2023-04-25T07:33:02;9.10;99.90
5723;DHT22;2886;49.722;8.612;2023-04-25T07:35:31;9.00;99.90
5723;DHT22;2886;49.722;8.612;2023-04-25T07:37:56;9.20;99.90
5723;DHT22;2886;49.722;8.612;2023-04-25T07:40:22;9.20;99.90
5723;DHT22;2886;49.722;8.612;2023-04-25T07:42:50;9.40;99.90
5723;DHT22;2886;49.722;8.612;2023-04-25T07:45:15;9.50;99.90
5723;DHT22;2886;49.722;8.612;2023-04-25T07:47:41;9.50;99.90
5723;DHT22;2886;49.722;8.612;2023-04-25T07:50:07;9.60;99.90
5723;DHT22;2886;49.722;8.612;2023-04-25T07:52:34;9.30;99.90
5723;DHT22;2886;49.722;8.612;2023-04-25T07:54:59;9.40;99.90
5723;DHT22;2886;49.722;8.612;2023-04-25T07:57:25;9.50;99.90
5723;DHT22;2886;49.722;8.612;2023-04-25T07:59:51;9.40;99.90
5723;DHT22;2886;49.722;8.612;2023-04-25T08:02:17;9.60;99.90
5723;DHT22;2886;49.722;8.612;2023-04-25T08:04:43;9.60;99.90
5723;DHT22;2886;49.722;8.612;2023-04-25T08:07:08;9.60;99.90
5723;DHT22;2886;49.722;8.612;2023-04-25T08:09:35;9.70;99.90
5723;DHT22;2886;49.722;8.612;2023-04-25T08:12:02;9.90;99.90
5723;DHT22;2886;49.722;8.612;2023-04-25T08:14:28;10.20;99.90
5723;DHT22;2886;49.722;8.612;2023-04-25T08:16:56;10.10;99.90
5723;DHT22;2886;49.722;8.612;2023-04-25T08:19:23;10.00;99.90
5723;DHT22;2886;49.722;8.612;2023-04-25T08:21:48;9.90;99.90
5723;DHT22;2886;49.722;8.612;2023-04-25T08:24:15;9.90;99.90
5723;DHT22;2886;49.722;8.612;2023-04-25T08:26:41;9.90;99.90
5723;DHT22;2886;49.722;8.612;2023-04-25T08:29:07;9.90;99.80
5723;DHT22;2886;49.722;8.612;2023-04-25T08:31:32;10.10;99.90
5723;DHT22;2886;49.722;8.612;2023-04-25T08:33:58;10.00;99.20
5723;DHT22;2886;49.722;8.612;2023-04-25T08:36:24;10.00;99.40
5723;DHT22;2886;49.722;8.612;2023-04-25T08:38:49;10.20;98.00
5723;DHT22;2886;49.722;8.612;2023-04-25T08:41:16;10.50;99.40
5723;DHT22;2886;49.722;8.612;2023-04-25T08:43:43;10.70;97.50
5723;DHT22;2886;49.722;8.612;2023-04-25T08:46:11;10.60;98.80
5723;DHT22;2886;49.722;8.612;2023-04-25T08:48:39;10.50;99.00
5723;DHT22;2886;49.722;8.612;2023-04-25T08:51:07;10.70;99.60
5723;DHT22;2886;49.722;8.612;2023-04-25T08:53:33;10.70;97.60
5723;DHT22;2886;49.722;8.612;2023-04-25T08:56:00;10.90;98.00
5723;DHT22;2886;49.722;8.612;2023-04-25T08:58:29;11.00;98.00
5723;DHT22;2886;49.722;8.612;2023-04-25T09:00:55;11.30;97.40
5723;DHT22;2886;49.722;8.612;2023-04-25T09:03:24;11.20;96.00
5723;DHT22;2886;49.722;8.612;2023-04-25T09:05:51;11.30;97.80
5723;DHT22;2886;49.722;8.612;2023-04-25T09:08:16;11.90;94.70
5723;DHT22;2886;49.722;8.612;2023-04-25T09:10:42;11.90;94.00
5723;DHT22;2886;49.722;8.612;2023-04-25T09:13:13;11.60;93.60
5723;DHT22;2886;49.722;8.612;2023-04-25T09:15:53;11.70;92.80
5723;DHT22;2886;49.722;8.612;2023-04-25T09:20:58;11.10;95.60
5723;DHT22;2886;49.722;8.612;2023-04-25T09:23:29;11.40;95.80
5723;DHT22;2886;49.722;8.612;2023-04-25T09:25:55;12.00;93.30
5723;DHT22;2886;49.722;8.612;2023-04-25T09:28:25;12.80;87.00
5723;DHT22;2886;49.722;8.612;2023-04-25T09:30:55;13.00;81.00
5723;DHT22;2886;49.722;8.612;2023-04-25T09:33:28;12.60;76.70
5723;DHT22;2886;49.722;8.612;2023-04-25T09:36:04;12.40;81.10
5723;DHT22;2886;49.722;8.612;2023-04-25T09:38:41;12.10;81.10
5723;DHT22;2886;49.722;8.612;2023-04-25T09:41:08;11.90;80.70
5723;DHT22;2886;49.722;8.612;2023-04-25T09:43:34;11.70;82.50
5723;DHT22;2886;49.722;8.612;2023-04-25T09:46:00;11.60;83.10
5723;DHT22;2886;49.722;8.612;2023-04-25T09:48:27;11.70;80.10
5723;DHT22;2886;49.722;8.612;2023-04-25T09:51:12;12.20;78.20
5723;DHT22;2886;49.722;8.612;2023-04-25T09:53:41;12.50;81.60
5723;DHT22;2886;49.722;8.612;2023-04-25T09:56:09;12.70;74.50
5723;DHT22;2886;49.722;8.612;2023-04-25T09:58:37;12.80;75.10
5723;DHT22;2886;49.722;8.612;2023-04-25T10:01:10;12.70;75.50
5723;DHT22;2886;49.722;8.612;2023-04-25T10:03:39;12.10;83.00
5723;DHT22;2886;49.722;8.612;2023-04-25T10:06:09;11.90;79.70
5723;DHT22;2886;49.722;8.612;2023-04-25T10:08:38;11.80;79.30
5723;DHT22;2886;49.722;8.612;2023-04-25T10:11:05;11.80;80.10
5723;DHT22;2886;49.722;8.612;2023-04-25T10:13:33;12.00;85.20
5723;DHT22;2886;49.722;8.612;2023-04-25T10:16:00;12.00;78.10
5723;DHT22;2886;49.722;8.612;2023-04-25T10:18:28;11.90;78.10
5723;DHT22;2886;49.722;8.612;2023-04-25T10:20:55;12.10;78.20
5723;DHT22;2886;49.722;8.612;2023-04-25T10:23:22;11.80;77.80
5723;DHT22;2886;49.722;8.612;2023-04-25T10:25:50;11.70;79.10
5723;DHT22;2886;49.722;8.612;2023-04-25T10:28:16;11.70;82.20
5723;DHT22;2886;49.722;8.612;2023-04-25T10:31:17;12.00;81.60
5723;DHT22;2886;49.722;8.612;2023-04-25T10:33:43;12.30;79.00
5723;DHT22;2886;49.722;8.612;2023-04-25T10:36:31;12.40;78.70
5723;DHT22;2886;49.722;8.612;2023-04-25T10:39:05;12.20;76.60
5723;DHT22;2886;49.722;8.612;2023-04-25T10:41:45;12.10;77.00
5723;DHT22;2886;49.722;8.612;2023-04-25T10:44:11;11.90;80.90
5723;DHT22;2886;49.722;8.612;2023-04-25T10:46:37;11.70;86.10
5723;DHT22;2886;49.722;8.612;2023-04-25T10:49:03;11.70;86.30
5723;DHT22;2886;49.722;8.612;2023-04-25T10:51:33;11.60;82.50
5723;DHT22;2886;49.722;8.612;2023-04-25T10:54:08;11.60;80.70
5723;DHT22;2886;49.722;8.612;2023-04-25T10:56:38;11.30;79.40
5723;DHT22;2886;49.722;8.612;2023-04-25T10:59:16;11.30;80.90
5723;DHT22;2886;49.722;8.612;2023-04-25T11:01:46;11.10;83.00
5723;DHT22;2886;49.722;8.612;2023-04-25T11:04:36;11.10;84.30
5723;DHT22;2886;49.722;8.612;2023-04-25T11:09:53;10.80;90.40
5723;DHT22;2886;49.722;8.612;2023-04-25T11:12:22;10.70;90.00
5723;DHT22;2886;49.722;8.612;2023-04-25T11:14:50;10.80;90.00
5723;DHT22;2886;49.722;8.612;2023-04-25T11:17:15;10.80;87.80
5723;DHT22;2886;49.722;8.612;2023-04-25T11:19:41;11.00;87.70
5723;DHT22;2886;49.722;8.612;2023-04-25T11:22:06;11.10;86.20
5723;DHT22;2886;49.722;8.612;2023-04-25T11:24:34;11.10;85.60
5723;DHT22;2886;49.722;8.612;2023-04-25T11:27:04;11.20;88.10
5723;DHT22;2886;49.722;8.612;2023-04-25T11:29:31;11.50;84.00
5723;DHT22;2886;49.722;8.612;2023-04-25T11:32:00;11.50;80.30
5723;DHT22;2886;49.722;8.612;2023-04-25T11:34:29;11.70;81.30
5723;DHT22;2886;49.722;8.612;2023-04-25T11:36:56;11.90;76.30
5723;DHT22;2886;49.722;8.612;2023-04-25T11:39:24;11.90;76.90
5723;DHT22;2886;49.722;8.612;2023-04-25T11:41:53;12.00;81.00
5723;DHT22;2886;49.722;8.612;2023-04-25T11:44:19;12.20;76.60
5723;DHT22;2886;49.722;8.612;2023-04-25T11:46:46;12.20;73.40
5723;DHT22;2886;49.722;8.612;2023-04-25T11:49:12;12.40;73.30
5723;DHT22;2886;49.722;8.612;2023-04-25T11:51:42;12.10;75.20
5723;DHT22;2886;49.722;8.612;2023-04-25T11:54:11;12.40;75.80
5723;DHT22;2886;49.722;8.612;2023-04-25T11:56:37;12.70;72.20
5723;DHT22;2886;49.722;8.612;2023-04-25T11:59:05;12.60;71.50
5723;DHT22;2886;49.722;8.612;2023-04-25T12:01:35;12.70;71.40
5723;DHT22;2886;49.722;8.612;2023-04-25T12:04:22;12.40;73.00
5723;DHT22;2886;49.722;8.612;2023-04-25T12:06:50;12.60;74.10
5723;DHT22;2886;49.722;8.612;2023-04-25T12:09:20;12.80;71.60
5723;DHT22;2886;49.722;8.612;2023-04-25T12:11:55;12.80;68.20
5723;DHT22;2886;49.722;8.612;2023-04-25T12:14:23;12.80;66.50
5723;DHT22;2886;49.722;8.612;2023-04-25T12:16:54;12.70;66.10
5723;DHT22;2886;49.722;8.612;2023-04-25T12:19:21;12.80;66.60
5723;DHT22;2886;49.722;8.612;2023-04-25T12:21:47;12.90;65.10
5723;DHT22;2886;49.722;8.612;2023-04-25T12:24:15;13.10;65.70
5723;DHT22;2886;49.722;8.612;2023-04-25T12:27:01;13.10;65.60
5723;DHT22;2886;49.722;8.612;2023-04-25T12:29:31;12.70;66.20
5723;DHT22;2886;49.722;8.612;2023-04-25T12:32:01;12.50;66.90
5723;DHT22;2886;49.722;8.612;2023-04-25T12:34:29;12.40;68.10
5723;DHT22;2886;49.722;8.612;2023-04-25T12:36:57;12.40;66.90
5723;DHT22;2886;49.722;8.612;2023-04-25T12:39:24;12.40;68.50
5723;DHT22;2886;49.722;8.612;2023-04-25T12:41:53;12.40;67.70
5723;DHT22;2886;49.722;8.612;2023-04-25T12:44:21;12.50;66.60
5723;DHT22;2886;49.722;8.612;2023-04-25T12:46:47;12.40;66.00
5723;DHT22;2886;49.722;8.612;2023-04-25T12:49:13;12.50;67.10
5723;DHT22;2886;49.722;8.612;2023-04-25T12:51:39;12.20;65.80
5723;DHT22;2886;49.722;8.612;2023-04-25T12:54:05;12.10;69.10
5723;DHT22;2886;49.722;8.612;2023-04-25T12:56:32;12.40;68.40
5723;DHT22;2886;49.722;8.612;2023-04-25T12:58:58;12.50;64.90
5723;DHT22;2886;49.722;8.612;2023-04-25T13:01:24;12.50;67.20
5723;DHT22;2886;49.722;8.612;2023-04-25T13:03:51;12.50;67.00
5723;DHT22;2886;49.722;8.612;2023-04-25T13:06:17;12.70;68.40
5723;DHT22;2886;49.722;8.612;2023-04-25T13:08:43;12.80;66.10
5723;DHT22;2886;49.722;8.612;2023-04-25T13:11:09;12.90;65.10
5723;DHT22;2886;49.722;8.612;2023-04-25T13:13:35;13.00;65.50
5723;DHT22;2886;49.722;8.612;2023-04-25T13:16:02;12.80;64.20
5723;DHT22;2886;49.722;8.612;2023-04-25T13:18:29;12.80;65.80
5723;DHT22;2886;49.722;8.612;2023-04-25T13:20:55;12.60;65.70
5723;DHT22;2886;49.722;8.612;2023-04-25T13:23:20;12.60;64.10
5723;DHT22;2886;49.722;8.612;2023-04-25T13:25:46;12.80;61.50
5723;DHT22;2886;49.722;8.612;2023-04-25T13:28:15;13.00;61.50
5723;DHT22;2886;49.722;8.612;2023-04-25T13:30:41;12.90;63.30
5723;DHT22;2886;49.722;8.612;2023-04-25T13:33:07;12.90;62.00
5723;DHT22;2886;49.722;8.612;2023-04-25T13:35:34;12.80;62.40
5723;DHT22;2886;49.722;8.612;2023-04-25T13:38:00;13.00;60.70
5723;DHT22;2886;49.722;8.612;2023-04-25T13:40:26;12.70;62.00
5723;DHT22;2886;49.722;8.612;2023-04-25T13:42:52;12.70;62.60
5723;DHT22;2886;49.722;8.612;2023-04-25T13:45:18;12.80;62.40
5723;DHT22;2886;49.722;8.612;2023-04-25T13:47:44;12.70;61.20
5723;DHT22;2886;49.722;8.612;2023-04-25T13:50:12;12.40;60.40
5723;DHT22;2886;49.722;8.612;2023-04-25T13:52:39;12.40;61.60
5723;DHT22;2886;49.722;8.612;2023-04-25T13:55:05;12.30;61.50
5723;DHT22;2886;49.722;8.612;2023-04-25T13:57:33;12.50;61.10
5723;DHT22;2886;49.722;8.612;2023-04-25T13:59:59;12.70;60.70
5723;DHT22;2886;49.722;8.612;2023-04-25T14:02:24;12.90;60.10
5723;DHT22;2886;49.722;8.612;2023-04-25T14:04:50;12.90;59.40
5723;DHT22;2886;49.722;8.612;2023-04-25T14:07:16;12.70;58.00
5723;DHT22;2886;49.722;8.612;2023-04-25T14:09:42;12.50;57.50
5723;DHT22;2886;49.722;8.612;2023-04-25T14:12:07;12.40;56.90
5723;DHT22;2886;49.722;8.612;2023-04-25T14:14:33;12.50;57.50
5723;DHT22;2886;49.722;8.612;2023-04-25T14:16:59;12.50;59.70
5723;DHT22;2886;49.722;8.612;2023-04-25T14:19:24;12.50;58.20
5723;DHT22;2886;49.722;8.612;2023-04-25T14:21:50;12.60;59.00
5723;DHT22;2886;49.722;8.612;2023-04-25T14:24:16;12.30;56.60
5723;DHT22;2886;49.722;8.612;2023-04-25T14:26:42;12.10;58.20
5723;DHT22;2886;49.722;8.612;2023-04-25T14:29:08;11.90;60.20
5723;DHT22;2886;49.722;8.612;2023-04-25T14:31:34;11.80;60.40
5723;DHT22;2886;49.722;8.612;2023-04-25T14:34:01;11.90;60.40
5723;DHT22;2886;49.722;8.612;2023-04-25T14:36:30;12.00;61.20
5723;DHT22;2886;49.722;8.612;2023-04-25T14:38:57;11.80;61.70
5723;DHT22;2886;49.722;8.612;2023-04-25T14:41:26;11.50;62.00
5723;DHT22;2886;49.722;8.612;2023-04-25T14:43:52;11.40;62.40
5723;DHT22;2886;49.722;8.612;2023-04-25T14:46:19;11.60;62.10
5723;DHT22;2886;49.722;8.612;2023-04-25T14:48:45;11.50;63.00
5723;DHT22;2886;49.722;8.612;2023-04-25T14:51:11;11.60;62.80
5723;DHT22;2886;49.722;8.612;2023-04-25T14:53:39;11.70;61.60
5723;DHT22;2886;49.722;8.612;2023-04-25T14:56:05;11.80;61.70
5723;DHT22;2886;49.722;8.612;2023-04-25T14:58:31;11.70;61.80
5723;DHT22;2886;49.722;8.612;2023-04-25T15:00:56;11.80;62.50
5723;DHT22;2886;49.722;8.612;2023-04-25T15:03:26;11.90;61.50
5723;DHT22;2886;49.722;8.612;2023-04-25T15:05:54;12.00;59.80
5723;DHT22;2886;49.722;8.612;2023-04-25T15:08:20;12.10;60.30
5723;DHT22;2886;49.722;8.612;2023-04-25T15:10:46;12.10;60.30
5723;DHT22;2886;49.722;8.612;2023-04-25T15:13:12;12.10;59.10
5723;DHT22;2886;49.722;8.612;2023-04-25T15:15:37;12.10;59.80
5723;DHT22;2886;49.722;8.612;2023-04-25T15:18:03;12.00;59.30
5723;DHT22;2886;49.722;8.612;2023-04-25T15:20:29;12.10;58.00
5723;DHT22;2886;49.722;8.612;2023-04-25T15:22:55;12.20;58.70
5723;DHT22;2886;49.722;8.612;2023-04-25T15:25:21;12.40;59.30
5723;DHT22;2886;49.722;8.612;2023-04-25T15:27:47;12.40;57.90
5723;DHT22;2886;49.722;8.612;2023-04-25T15:30:17;12.50;56.50
5723;DHT22;2886;49.722;8.612;2023-04-25T15:32:45;12.40;55.10
5723;DHT22;2886;49.722;8.612;2023-04-25T15:35:12;12.40;54.70
5723;DHT22;2886;49.722;8.612;2023-04-25T15:37:37;12.20;54.50
5723;DHT22;2886;49.722;8.612;2023-04-25T15:40:08;12.30;54.60
5723;DHT22;2886;49.722;8.612;2023-04-25T15:42:38;12.30;53.70
5723;DHT22;2886;49.722;8.612;2023-04-25T15:45:06;12.30;53.20
5723;DHT22;2886;49.722;8.612;2023-04-25T15:47:34;12.20;53.10
5723;DHT22;2886;49.722;8.612;2023-04-25T15:50:01;12.20;54.10
5723;DHT22;2886;49.722;8.612;2023-04-25T15:52:27;12.10;54.90
5723;DHT22;2886;49.722;8.612;2023-04-25T15:54:52;12.10;54.70
5723;DHT22;2886;49.722;8.612;2023-04-25T15:57:19;12.10;54.40
5723;DHT22;2886;49.722;8.612;2023-04-25T15:59:45;12.00;56.30
5723;DHT22;2886;49.722;8.612;2023-04-25T16:02:12;12.00;55.50
5723;DHT22;2886;49.722;8.612;2023-04-25T16:04:38;12.00;55.90
5723;DHT22;2886;49.722;8.612;2023-04-25T16:07:04;12.10;56.60
5723;DHT22;2886;49.722;8.612;2023-04-25T16:09:30;12.20;57.00
5723;DHT22;2886;49.722;8.612;2023-04-25T16:11:56;12.20;55.50
5723;DHT22;2886;49.722;8.612;2023-04-25T16:14:22;12.20;54.30